createdAt,value
2022-10-18T00:00:46.827Z,94800.72
2022-10-18T00:01:48.431Z,94799.50
2022-10-18T00:02:49.947Z,94797.84
2022-10-18T00:03:51.362Z,94796.03
2022-10-18T00:04:52.826Z,94799.50
2022-10-18T00:05:54.334Z,94797.03
2022-10-18T00:06:55.812Z,94796.22
2022-10-18T00:07:57.401Z,94789.25
2022-10-18T00:08:58.857Z,94791.09
2022-10-18T00:10:00.265Z,94792.94
2022-10-18T00:11:01.834Z,94795.19
2022-10-18T00:12:05.063Z,94795.81
2022-10-18T00:13:06.563Z,94793.56
2022-10-18T00:14:08.107Z,94790.06
2022-10-18T00:15:11.048Z,94790.66
2022-10-18T00:16:15.231Z,94790.25
2022-10-18T00:17:16.823Z,94783.53
2022-10-18T00:18:18.733Z,94789.44
2022-10-18T00:19:20.205Z,94783.53
2022-10-18T00:20:21.715Z,94786.59
2022-10-18T00:21:24.789Z,94786.59
2022-10-18T00:22:26.295Z,94785.97
2022-10-18T00:23:29.682Z,94785.78
2022-10-18T00:24:31.091Z,94787.19
2022-10-18T00:25:32.517Z,94792.97
2022-10-18T00:26:34.023Z,94796.44
2022-10-18T00:27:37.031Z,94788.44
2022-10-18T00:28:38.885Z,94796.03
2022-10-18T00:29:40.370Z,94791.72
2022-10-18T00:30:41.850Z,94792.97
2022-10-18T00:31:44.342Z,94794.19
2022-10-18T00:32:45.811Z,94786.78
2022-10-18T00:33:50.512Z,94789.44
2022-10-18T00:34:52.066Z,94790.28
2022-10-18T00:35:53.523Z,94790.06
2022-10-18T00:36:55.007Z,94795.63
2022-10-18T00:37:56.467Z,94789.66
2022-10-18T00:38:58.905Z,94788.22
2022-10-18T00:40:00.415Z,94787.81
2022-10-18T00:41:03.136Z,94792.94
2022-10-18T00:42:04.740Z,94781.25
2022-10-18T00:43:10.284Z,94785.78
2022-10-18T00:44:48.756Z,94781.88
2022-10-18T00:45:50.169Z,94790.69
2022-10-18T00:46:53.532Z,94784.56
2022-10-18T00:47:58.550Z,94787.81
2022-10-18T00:49:02.398Z,94789.84
2022-10-18T00:50:06.167Z,94780.84
2022-10-18T00:51:07.746Z,94784.53
2022-10-18T00:52:12.293Z,94784.97
2022-10-18T00:53:17.719Z,94785.16
2022-10-18T00:54:20.617Z,94783.31
2022-10-18T00:55:22.466Z,94788.22
2022-10-18T00:56:24.074Z,94778.59
2022-10-18T00:57:26.087Z,94791.91
2022-10-18T00:58:29.247Z,94781.69
2022-10-18T00:59:30.877Z,94783.31
2022-10-18T01:00:32.353Z,94776.97
2022-10-18T01:01:33.836Z,94788.84
2022-10-18T01:02:35.823Z,94781.88
2022-10-18T01:03:38.051Z,94778.78
2022-10-18T01:04:39.502Z,94775.13
2022-10-18T01:05:44.456Z,94777.56
2022-10-18T01:08:07.336Z,94777.78
2022-10-18T01:09:19.242Z,94779.19
2022-10-18T01:10:28.391Z,94777.78
2022-10-18T01:11:46.816Z,94776.13
2022-10-18T01:12:57.749Z,94779.81
2022-10-18T01:14:12.391Z,94782.91
2022-10-18T01:15:23.963Z,94784.53
2022-10-18T01:16:31.071Z,94778.59
2022-10-18T01:17:46.027Z,94785.16
2022-10-18T01:18:53.380Z,94785.16
2022-10-18T01:20:37.105Z,94783.94
2022-10-18T01:21:47.762Z,94783.53
2022-10-18T01:22:54.826Z,94787.00
2022-10-18T01:24:38.022Z,94787.41
2022-10-18T01:25:48.697Z,94789.25
2022-10-18T01:27:07.470Z,94785.56
2022-10-18T01:28:33.419Z,94783.13
2022-10-18T01:29:52.447Z,94786.78
2022-10-18T01:30:59.797Z,94791.91
2022-10-18T01:32:03.795Z,94792.09
2022-10-18T01:33:12.588Z,94786.59
2022-10-18T01:34:17.483Z,94786.19
2022-10-18T01:35:22.966Z,94785.78
2022-10-18T01:36:31.353Z,94783.94
2022-10-18T01:37:35.357Z,94788.22
2022-10-18T01:38:39.537Z,94777.16
2022-10-18T01:39:45.597Z,94776.97
2022-10-18T01:40:50.261Z,94780.03
2022-10-18T01:41:53.756Z,94781.88
2022-10-18T01:42:55.468Z,94780.63
2022-10-18T01:43:59.499Z,94774.06
2022-10-18T01:45:03.662Z,94778.19
2022-10-18T01:46:08.772Z,94775.31
2022-10-18T01:47:12.242Z,94769.53
2022-10-18T01:48:15.161Z,94774.69
2022-10-18T01:49:16.820Z,94770.00
2022-10-18T01:50:28.738Z,94777.34
2022-10-18T01:51:32.780Z,94782.47
2022-10-18T01:52:34.653Z,94778.38
2022-10-18T01:53:36.251Z,94784.34
2022-10-18T01:54:40.684Z,94777.38
2022-10-18T01:55:48.434Z,94782.91
2022-10-18T01:56:56.589Z,94781.44
2022-10-18T01:58:05.750Z,94779.81
2022-10-18T01:59:23.663Z,94780.88
2022-10-18T02:00:31.625Z,94782.91
2022-10-18T02:01:43.188Z,94783.31
2022-10-18T02:02:50.740Z,94778.78
2022-10-18T02:03:56.213Z,94782.09
2022-10-18T02:05:03.179Z,94782.91
2022-10-18T02:06:09.982Z,94784.53
2022-10-18T02:07:19.791Z,94786.59
2022-10-18T02:08:28.198Z,94788.63
2022-10-18T02:09:36.604Z,94786.59
2022-10-18T02:10:43.233Z,94787.41
2022-10-18T02:11:48.015Z,94791.91
2022-10-18T02:12:52.784Z,94787.63
2022-10-18T02:13:59.217Z,94791.09
2022-10-18T02:15:02.124Z,94789.25
2022-10-18T02:16:07.762Z,94790.06
2022-10-18T02:17:12.675Z,94789.25
2022-10-18T02:18:18.153Z,94787.00
2022-10-18T02:20:31.584Z,94791.09
2022-10-18T02:21:34.141Z,94786.59
2022-10-18T02:22:37.272Z,94787.19
2022-10-18T02:23:39.090Z,94782.91
2022-10-18T02:24:44.689Z,94781.88
2022-10-18T02:25:46.364Z,94780.41
2022-10-18T02:26:47.822Z,94775.72
2022-10-18T02:27:49.684Z,94780.41
2022-10-18T02:28:51.600Z,94779.19
2022-10-18T02:29:53.427Z,94786.34
2022-10-18T02:31:02.081Z,94779.94
2022-10-18T02:32:08.028Z,94780.31
2022-10-18T02:33:17.766Z,94785.22
2022-10-18T02:34:22.342Z,94775.34
2022-10-18T02:35:29.373Z,94776.94
2022-10-18T02:36:35.722Z,94780.97
2022-10-18T02:37:38.801Z,94778.28
2022-10-18T02:38:41.987Z,94776.25
2022-10-18T02:39:47.008Z,94771.31
2022-10-18T02:40:48.439Z,94776.38
2022-10-18T02:41:49.948Z,94776.56
2022-10-18T02:42:57.189Z,94772.25
2022-10-18T02:43:58.646Z,94772.44
2022-10-18T02:45:00.056Z,94771.06
2022-10-18T02:46:02.493Z,94771.44
2022-10-18T02:47:05.525Z,94769.22
2022-10-18T02:48:07.534Z,94768.00
2022-10-18T02:49:10.336Z,94771.88
2022-10-18T02:50:12.235Z,94770.66
2022-10-18T02:51:13.729Z,94769.59
2022-10-18T02:52:15.170Z,94778.03
2022-10-18T02:53:16.600Z,94781.06
2022-10-18T02:54:18.058Z,94779.03
2022-10-18T02:55:19.513Z,94782.81
2022-10-18T02:56:20.981Z,94781.38
2022-10-18T02:57:22.527Z,94790.44
2022-10-18T02:58:24.001Z,94785.13
2022-10-18T02:59:25.787Z,94786.56
2022-10-18T03:00:27.209Z,94787.16
2022-10-18T03:01:28.712Z,94783.91
2022-10-18T03:02:30.230Z,94790.84
2022-10-18T03:03:31.667Z,94791.03
2022-10-18T03:04:34.550Z,94791.06
2022-10-18T03:05:35.986Z,94791.06
2022-10-18T03:06:37.635Z,94789.19
2022-10-18T03:07:39.065Z,94789.03
2022-10-18T03:08:40.517Z,94788.97
2022-10-18T03:09:41.932Z,94790.78
2022-10-18T03:10:43.557Z,94784.56
2022-10-18T03:11:45.030Z,94786.97
2022-10-18T03:12:46.470Z,94786.34
2022-10-18T03:13:47.936Z,94792.25
2022-10-18T03:14:49.387Z,94781.97
2022-10-18T03:15:50.803Z,94783.22
2022-10-18T03:16:52.359Z,94780.19
2022-10-18T03:17:53.776Z,94781.22
2022-10-18T03:18:55.250Z,94785.81
2022-10-18T03:19:58.052Z,94783.47
2022-10-18T03:20:59.493Z,94788.38
2022-10-18T03:22:00.920Z,94782.72
2022-10-18T03:23:02.374Z,94783.75
2022-10-18T03:24:04.704Z,94783.91
2022-10-18T03:25:06.564Z,94785.38
2022-10-18T03:26:08.109Z,94791.56
2022-10-18T03:27:09.519Z,94784.84
2022-10-18T03:28:11.125Z,94785.47
2022-10-18T03:29:12.655Z,94791.41
2022-10-18T03:30:14.198Z,94784.66
2022-10-18T03:31:15.659Z,94786.22
2022-10-18T03:32:17.125Z,94777.88
2022-10-18T03:33:18.615Z,94777.44
2022-10-18T03:34:20.069Z,94772.13
2022-10-18T03:35:22.878Z,94776.78
2022-10-18T03:36:24.396Z,94771.09
2022-10-18T03:37:25.825Z,94772.78
2022-10-18T03:38:27.319Z,94776.25
2022-10-18T03:39:28.889Z,94771.94
2022-10-18T03:41:36.975Z,94778.50
2022-10-18T03:42:38.478Z,94776.66
2022-10-18T03:43:39.914Z,94776.03
2022-10-18T03:44:41.403Z,94778.69
2022-10-18T03:45:43.100Z,94788.09
2022-10-18T03:46:44.538Z,94783.97
2022-10-18T03:47:46.106Z,94781.53
2022-10-18T03:48:47.525Z,94778.28
2022-10-18T03:49:51.980Z,94778.66
2022-10-18T03:50:57.547Z,94780.13
2022-10-18T03:51:59.107Z,94774.16
2022-10-18T03:53:00.528Z,94782.63
2022-10-18T03:54:02.178Z,94775.00
2022-10-18T03:55:04.106Z,94778.09
2022-10-18T03:56:06.251Z,94775.41
2022-10-18T03:57:07.675Z,94775.94
2022-10-18T03:58:09.283Z,94776.38
2022-10-18T03:59:10.732Z,94771.94
2022-10-18T04:00:13.195Z,94775.75
2022-10-18T04:01:14.650Z,94769.28
2022-10-18T04:02:16.106Z,94775.78
2022-10-18T04:03:18.628Z,94774.78
2022-10-18T04:04:20.204Z,94782.34
2022-10-18T04:05:22.043Z,94782.78
2022-10-18T04:06:24.863Z,94782.09
2022-10-18T04:07:26.322Z,94778.44
2022-10-18T04:08:27.806Z,94782.25
2022-10-18T04:09:29.256Z,94776.69
2022-10-18T04:10:30.726Z,94778.88
2022-10-18T04:11:32.212Z,94780.22
2022-10-18T04:12:33.964Z,94782.75
2022-10-18T04:13:35.842Z,94781.38
2022-10-18T04:14:37.291Z,94787.66
2022-10-18T04:15:38.711Z,94787.97
2022-10-18T04:16:40.346Z,94780.31
2022-10-18T04:17:41.815Z,94781.28
2022-10-18T04:18:43.254Z,94787.00
2022-10-18T04:19:44.751Z,94786.34
2022-10-18T04:20:46.193Z,94780.56
2022-10-18T04:21:48.987Z,94780.34
2022-10-18T04:22:50.882Z,94779.34
2022-10-18T04:23:52.329Z,94780.41
2022-10-18T04:24:53.794Z,94783.13
2022-10-18T04:25:55.257Z,94777.63
2022-10-18T04:26:56.721Z,94781.47
2022-10-18T04:27:58.187Z,94788.38
2022-10-18T04:28:59.656Z,94783.41
2022-10-18T04:30:01.142Z,94783.75
2022-10-18T04:31:02.595Z,94792.63
2022-10-18T04:32:04.234Z,94784.78
2022-10-18T04:33:05.871Z,94785.97
2022-10-18T04:34:07.338Z,94789.97
2022-10-18T04:35:10.206Z,94790.75
2022-10-18T04:36:11.932Z,94786.03
2022-10-18T04:37:14.760Z,94783.91
2022-10-18T04:38:16.563Z,94784.34
2022-10-18T04:39:18.032Z,94783.00
2022-10-18T04:40:19.571Z,94781.75
2022-10-18T04:41:21.375Z,94783.91
2022-10-18T04:42:23.598Z,94780.69
2022-10-18T04:43:25.048Z,94788.47
2022-10-18T04:44:26.492Z,94788.16
2022-10-18T04:45:27.930Z,94790.03
2022-10-18T04:46:29.363Z,94788.97
2022-10-18T04:47:31.101Z,94788.41
2022-10-18T04:48:32.702Z,94790.13
2022-10-18T04:49:34.336Z,94792.75
2022-10-18T04:50:35.844Z,94792.63
2022-10-18T04:51:37.251Z,94801.69
2022-10-18T04:52:40.046Z,94795.72
2022-10-18T04:53:41.574Z,94797.41
2022-10-18T04:54:42.989Z,94792.50
2022-10-18T04:55:45.135Z,94788.78
2022-10-18T04:56:46.574Z,94789.22
2022-10-18T04:57:48.026Z,94789.28
2022-10-18T04:58:49.529Z,94787.34
2022-10-18T04:59:50.983Z,94789.56
2022-10-18T05:00:52.451Z,94786.81
2022-10-18T05:01:54.010Z,94791.28
2022-10-18T05:02:56.968Z,94788.47
2022-10-18T05:03:58.412Z,94785.75
2022-10-18T05:04:59.815Z,94787.81
2022-10-18T05:06:02.643Z,94792.53
2022-10-18T05:07:04.821Z,94788.91
2022-10-18T05:08:07.640Z,94789.13
2022-10-18T05:09:09.118Z,94791.88
2022-10-18T05:10:10.681Z,94796.59
2022-10-18T05:11:12.147Z,94793.78
2022-10-18T05:12:13.595Z,94794.00
2022-10-18T05:13:15.392Z,94790.97
2022-10-18T05:14:17.048Z,94794.38
2022-10-18T05:15:18.512Z,94796.88
2022-10-18T05:16:19.976Z,94785.44
2022-10-18T05:17:21.567Z,94793.50
2022-10-18T05:18:23.059Z,94798.16
2022-10-18T05:19:24.501Z,94800.50
2022-10-18T05:20:25.904Z,94797.03
2022-10-18T05:21:27.344Z,94801.69
2022-10-18T05:22:28.927Z,94797.53
2022-10-18T05:23:31.781Z,94803.88
2022-10-18T05:24:33.497Z,94802.06
2022-10-18T05:25:34.939Z,94808.09
2022-10-18T05:26:36.404Z,94795.34
2022-10-18T05:27:37.879Z,94797.72
2022-10-18T05:28:40.779Z,94793.25
2022-10-18T05:29:42.826Z,94795.66
2022-10-18T05:30:44.322Z,94798.81
2022-10-18T05:31:45.837Z,94803.00
2022-10-18T05:32:47.267Z,94794.38
2022-10-18T05:33:48.676Z,94795.78
2022-10-18T05:34:50.130Z,94794.91
2022-10-18T05:35:51.559Z,94798.25
2022-10-18T05:36:53.073Z,94787.38
2022-10-18T05:37:54.535Z,94793.47
2022-10-18T05:39:00.910Z,94793.13
2022-10-18T05:40:06.718Z,94795.28
2022-10-18T05:41:08.267Z,94795.94
2022-10-18T05:42:09.793Z,94791.31
2022-10-18T05:43:11.245Z,94804.19
2022-10-18T05:44:13.103Z,94798.50
2022-10-18T05:45:14.723Z,94795.25
2022-10-18T05:46:16.167Z,94796.53
2022-10-18T05:47:17.606Z,94787.97
2022-10-18T05:48:19.066Z,94793.22
2022-10-18T05:49:20.801Z,94793.28
2022-10-18T05:50:22.207Z,94792.00
2022-10-18T05:51:23.972Z,94791.94
2022-10-18T05:52:25.449Z,94785.06
2022-10-18T05:53:42.945Z,94783.78
2022-10-18T05:54:45.825Z,94785.38
2022-10-18T05:55:47.257Z,94784.88
2022-10-18T05:56:48.687Z,94794.16
2022-10-18T05:57:50.277Z,94788.84
2022-10-18T05:58:52.664Z,94788.25
2022-10-18T05:59:54.094Z,94790.41
2022-10-18T06:00:58.316Z,94791.69
2022-10-18T06:01:59.796Z,94795.41
2022-10-18T06:03:01.248Z,94792.69
2022-10-18T06:04:02.849Z,94793.72
2022-10-18T06:05:04.775Z,94797.88
2022-10-18T06:06:08.125Z,94796.44
2022-10-18T06:07:10.136Z,94795.63
2022-10-18T06:08:11.570Z,94793.03
2022-10-18T06:09:13.038Z,94784.63
2022-10-18T06:10:15.833Z,94793.47
2022-10-18T06:11:19.072Z,94798.13
2022-10-18T06:12:20.505Z,94790.59
2022-10-18T06:13:22.397Z,94787.22
2022-10-18T06:14:23.887Z,94788.25
2022-10-18T06:15:25.349Z,94786.84
2022-10-18T06:16:32.053Z,94800.47
2022-10-18T06:17:34.303Z,94797.13
2022-10-18T06:18:35.957Z,94796.19
2022-10-18T06:19:37.381Z,94800.19
2022-10-18T06:20:38.820Z,94795.72
2022-10-18T06:21:40.273Z,94799.28
2022-10-18T06:22:41.717Z,94800.41
2022-10-18T06:23:43.160Z,94802.84
2022-10-18T06:24:44.583Z,94800.06
2022-10-18T06:25:47.350Z,94797.91
2022-10-18T06:26:48.779Z,94800.56
2022-10-18T06:27:50.167Z,94804.75
2022-10-18T06:28:51.715Z,94796.41
2022-10-18T06:29:53.159Z,94804.28
2022-10-18T06:30:54.608Z,94806.53
2022-10-18T06:31:56.002Z,94811.53
2022-10-18T06:33:00.036Z,94800.88
2022-10-18T06:34:01.543Z,94805.91
2022-10-18T06:35:03.134Z,94806.53
2022-10-18T06:36:06.940Z,94800.59
2022-10-18T06:37:08.348Z,94801.19
2022-10-18T06:38:09.807Z,94801.28
2022-10-18T06:39:11.369Z,94796.56
2022-10-18T06:40:12.855Z,94799.44
2022-10-18T06:41:15.744Z,94798.84
2022-10-18T06:42:19.138Z,94801.72
2022-10-18T06:43:24.233Z,94803.56
2022-10-18T06:44:25.772Z,94800.78
2022-10-18T06:45:27.302Z,94800.41
2022-10-18T06:46:28.744Z,94808.19
2022-10-18T06:47:30.168Z,94814.31
2022-10-18T06:48:32.102Z,94816.03
2022-10-18T06:49:33.536Z,94810.19
2022-10-18T06:50:35.000Z,94808.63
2022-10-18T06:51:36.597Z,94815.94
2022-10-18T06:52:38.025Z,94821.31
2022-10-18T06:53:44.261Z,94818.66
2022-10-18T06:54:54.825Z,94810.19
2022-10-18T06:56:00.007Z,94817.63
2022-10-18T06:57:02.857Z,94817.41
2022-10-18T06:58:04.295Z,94818.13
2022-10-18T06:59:05.791Z,94817.94
2022-10-18T07:00:08.707Z,94815.16
2022-10-18T07:01:11.867Z,94819.44
2022-10-18T07:02:15.375Z,94827.19
2022-10-18T07:03:16.819Z,94818.91
2022-10-18T07:04:18.266Z,94819.84
2022-10-18T07:05:19.765Z,94819.25
2022-10-18T07:06:22.624Z,94821.75
2022-10-18T07:07:24.092Z,94824.81
2022-10-18T07:08:25.559Z,94830.56
2022-10-18T07:09:27.021Z,94824.84
2022-10-18T07:10:28.760Z,94831.19
2022-10-18T07:11:30.407Z,94828.50
2022-10-18T07:12:34.027Z,94832.81
2022-10-18T07:13:35.505Z,94829.78
2022-10-18T07:14:37.025Z,94830.44
2022-10-18T07:15:38.672Z,94827.00
2022-10-18T07:16:40.267Z,94832.94
2022-10-18T07:17:41.691Z,94830.09
2022-10-18T07:18:46.155Z,94839.06
2022-10-18T07:19:47.672Z,94838.88
2022-10-18T07:20:49.142Z,94840.72
2022-10-18T07:21:50.644Z,94843.59
2022-10-18T07:22:55.786Z,94839.56
2022-10-18T07:23:57.420Z,94847.53
2022-10-18T07:24:58.886Z,94836.97
2022-10-18T07:26:00.469Z,94838.88
2022-10-18T07:27:01.926Z,94843.88
2022-10-18T07:28:04.799Z,94846.94
2022-10-18T07:29:08.057Z,94843.50
2022-10-18T07:30:11.020Z,94843.28
2022-10-18T07:31:13.064Z,94832.47
2022-10-18T07:32:14.542Z,94835.81
2022-10-18T07:33:15.977Z,94836.00
2022-10-18T07:34:17.383Z,94834.53
2022-10-18T07:35:18.898Z,94833.94
2022-10-18T07:36:20.950Z,94835.19
2022-10-18T07:37:25.466Z,94839.19
2022-10-18T07:38:29.390Z,94832.22
2022-10-18T07:39:30.836Z,94832.63
2022-10-18T07:40:32.274Z,94834.88
2022-10-18T07:41:34.338Z,94836.53
2022-10-18T07:42:35.911Z,94838.81
2022-10-18T07:43:42.198Z,94839.47
2022-10-18T07:44:43.641Z,94835.53
2022-10-18T07:45:51.783Z,94837.00
2022-10-18T07:46:53.701Z,94834.78
2022-10-18T07:47:55.728Z,94838.25
2022-10-18T07:48:57.215Z,94830.44
2022-10-18T07:49:58.662Z,94835.78
2022-10-18T07:51:01.157Z,94834.53
2022-10-18T07:52:02.811Z,94835.16
2022-10-18T07:53:04.248Z,94839.03
2022-10-18T07:54:05.739Z,94833.28
2022-10-18T07:55:07.614Z,94826.34
2022-10-18T07:56:11.438Z,94822.88
2022-10-18T07:57:12.873Z,94826.31
2022-10-18T07:58:14.430Z,94831.03
2022-10-18T07:59:17.261Z,94821.38
2022-10-18T08:00:18.745Z,94824.69
2022-10-18T08:01:21.361Z,94827.34
2022-10-18T08:02:23.149Z,94823.84
2022-10-18T08:03:24.629Z,94819.28
2022-10-18T08:04:26.060Z,94825.28
2022-10-18T08:05:28.321Z,94820.75
2022-10-18T08:06:29.984Z,94821.50
2022-10-18T08:07:31.672Z,94815.94
2022-10-18T08:08:33.310Z,94821.03
2022-10-18T08:09:34.779Z,94819.75
2022-10-18T08:10:36.285Z,94824.66
2022-10-18T08:11:38.840Z,94827.06
2022-10-18T08:12:40.252Z,94832.38
2022-10-18T08:13:42.211Z,94822.91
2022-10-18T08:14:44.994Z,94828.00
2022-10-18T08:15:47.026Z,94832.00
2022-10-18T08:16:48.576Z,94834.94
2022-10-18T08:17:50.197Z,94837.66
2022-10-18T08:18:51.657Z,94831.69
2022-10-18T08:20:05.005Z,94832.44
2022-10-18T08:21:15.191Z,94835.13
2022-10-18T08:22:16.659Z,94832.81
2022-10-18T08:23:18.099Z,94830.16
2022-10-18T08:24:19.507Z,94824.34
2022-10-18T08:25:21.020Z,94822.00
2022-10-18T08:26:23.422Z,94833.28
2022-10-18T08:27:24.833Z,94828.94
2022-10-18T08:28:26.269Z,94834.38
2022-10-18T08:29:31.559Z,94829.09
2022-10-18T08:30:36.024Z,94831.50
2022-10-18T08:31:37.556Z,94832.03
2022-10-18T08:32:38.993Z,94829.88
2022-10-18T08:33:40.543Z,94827.72
2022-10-18T08:34:42.003Z,94827.16
2022-10-18T08:35:43.449Z,94833.31
2022-10-18T08:36:44.912Z,94832.38
2022-10-18T08:37:46.376Z,94834.66
2022-10-18T08:38:47.813Z,94834.81
2022-10-18T08:39:49.682Z,94836.50
2022-10-18T08:40:51.677Z,94835.88
2022-10-18T08:42:18.557Z,94835.53
2022-10-18T08:43:30.229Z,94837.22
2022-10-18T08:44:32.774Z,94838.84
2022-10-18T08:45:42.366Z,94832.31
2022-10-18T08:46:46.531Z,94833.06
2022-10-18T08:47:50.104Z,94834.72
2022-10-18T08:48:54.867Z,94833.94
2022-10-18T08:50:00.751Z,94830.34
2022-10-18T08:51:04.781Z,94837.19
2022-10-18T08:52:15.753Z,94830.88
2022-10-18T08:53:23.940Z,94829.53
2022-10-18T08:54:34.636Z,94833.38
2022-10-18T08:55:42.024Z,94842.31
2022-10-18T08:56:49.252Z,94841.03
2022-10-18T08:57:51.518Z,94836.94
2022-10-18T08:58:53.070Z,94840.03
2022-10-18T08:59:54.559Z,94835.84
2022-10-18T09:01:07.981Z,94837.00
2022-10-18T09:02:22.400Z,94840.66
2022-10-18T09:03:37.392Z,94839.47
2022-10-18T09:04:48.472Z,94837.81
2022-10-18T09:05:53.169Z,94841.59
2022-10-18T09:07:06.193Z,94838.44
2022-10-18T09:08:39.778Z,94837.13
2022-10-18T09:09:46.602Z,94841.34
2022-10-18T09:11:00.019Z,94834.66
2022-10-18T09:12:19.799Z,94835.13
2022-10-18T09:13:48.695Z,94829.47
2022-10-18T09:15:03.138Z,94829.03
2022-10-18T09:16:10.593Z,94832.88
2022-10-18T09:17:23.125Z,94829.13
2022-10-18T09:18:42.164Z,94825.59
2022-10-18T09:19:53.670Z,94828.97
2022-10-18T09:20:58.000Z,94835.16
2022-10-18T09:22:07.457Z,94829.63
2022-10-18T09:23:18.741Z,94836.78
2022-10-18T09:24:26.562Z,94831.78
2022-10-18T09:25:35.497Z,94832.22
2022-10-18T09:26:43.536Z,94832.22
2022-10-18T09:27:54.003Z,94838.56
2022-10-18T09:29:07.889Z,94837.66
2022-10-18T09:30:19.718Z,94837.22
2022-10-18T09:31:30.272Z,94840.78
2022-10-18T09:32:48.361Z,94842.88
2022-10-18T09:33:54.853Z,94836.31
2022-10-18T09:34:59.581Z,94839.00
2022-10-18T09:36:03.135Z,94834.81
2022-10-18T09:37:09.430Z,94829.38
2022-10-18T09:38:15.842Z,94827.53
2022-10-18T09:39:22.403Z,94835.13
2022-10-18T09:40:27.784Z,94833.47
2022-10-18T09:41:35.780Z,94829.84
2022-10-18T09:42:42.080Z,94822.56
2022-10-18T09:43:51.192Z,94832.09
2022-10-18T09:44:56.902Z,94828.00
2022-10-18T09:45:58.860Z,94831.69
2022-10-18T09:47:12.297Z,94829.03
2022-10-18T09:48:21.621Z,94824.78
2022-10-18T09:49:26.808Z,94833.97
2022-10-18T09:50:32.541Z,94831.34
2022-10-18T09:51:36.789Z,94827.25
2022-10-18T09:52:43.446Z,94831.19
2022-10-18T09:53:57.668Z,94815.97
2022-10-18T09:55:03.001Z,94830.59
2022-10-18T09:56:06.514Z,94826.56
2022-10-18T09:57:10.911Z,94822.63
2022-10-18T09:58:14.065Z,94833.84
2022-10-18T09:59:33.921Z,94832.81
2022-10-18T10:00:44.349Z,94836.69
2022-10-18T10:01:46.110Z,94834.25
2022-10-18T10:02:48.960Z,94834.34
2022-10-18T10:03:51.253Z,94829.19
2022-10-18T10:04:53.425Z,94833.88
2022-10-18T10:06:14.172Z,94835.94
2022-10-18T10:07:17.848Z,94828.75
2022-10-18T10:08:32.228Z,94834.44
2022-10-18T10:09:39.879Z,94831.22
2022-10-18T10:10:47.104Z,94830.88
2022-10-18T10:11:50.304Z,94825.50
2022-10-18T10:13:03.812Z,94828.66
2022-10-18T10:14:13.235Z,94830.72
2022-10-18T10:15:20.191Z,94819.66
2022-10-18T10:16:22.982Z,94822.31
2022-10-18T10:17:26.031Z,94821.25
2022-10-18T10:18:31.216Z,94829.03
2022-10-18T10:19:35.772Z,94817.66
2022-10-18T10:20:44.776Z,94823.75
2022-10-18T10:21:48.921Z,94820.41
2022-10-18T10:22:52.259Z,94818.56
2022-10-18T10:23:56.810Z,94823.91
2022-10-18T10:24:59.225Z,94824.88
2022-10-18T10:26:03.760Z,94820.72
2022-10-18T10:27:10.091Z,94820.94
2022-10-18T10:28:16.225Z,94813.84
2022-10-18T10:29:50.290Z,94826.78
2022-10-18T10:30:52.025Z,94819.41
2022-10-18T10:32:01.953Z,94821.94
2022-10-18T10:33:05.035Z,94817.63
2022-10-18T10:34:20.098Z,94822.41
2022-10-18T10:35:41.416Z,94826.34
2022-10-18T10:36:52.610Z,94822.19
2022-10-18T10:37:54.595Z,94829.41
2022-10-18T10:39:03.976Z,94823.41
2022-10-18T10:40:21.278Z,94825.34
2022-10-18T10:41:25.677Z,94820.78
2022-10-18T10:42:27.207Z,94822.28
2022-10-18T10:43:37.456Z,94823.03
2022-10-18T10:44:54.107Z,94822.63
2022-10-18T10:45:59.275Z,94823.44
2022-10-18T10:47:00.772Z,94822.66
2022-10-18T10:48:06.993Z,94823.13
2022-10-18T10:49:39.274Z,94821.63
2022-10-18T10:50:56.159Z,94821.44
2022-10-18T10:52:15.406Z,94819.16
2022-10-18T10:53:42.285Z,94821.84
2022-10-18T10:54:50.285Z,94819.41
2022-10-18T10:55:54.871Z,94816.63
2022-10-18T10:57:00.020Z,94818.25
2022-10-18T10:58:01.642Z,94816.38
2022-10-18T10:59:13.136Z,94811.41
2022-10-18T11:00:36.836Z,94813.09
2022-10-18T11:01:38.297Z,94810.56
2022-10-18T11:02:39.889Z,94807.72
2022-10-18T11:03:46.191Z,94808.63
2022-10-18T11:04:51.049Z,94803.53
2022-10-18T11:05:53.814Z,94803.13
2022-10-18T11:07:06.668Z,94803.06
2022-10-18T11:08:10.986Z,94803.44
2022-10-18T11:09:22.909Z,94801.94
2022-10-18T11:10:27.531Z,94798.47
2022-10-18T11:11:33.517Z,94796.34
2022-10-18T11:12:39.188Z,94795.66
2022-10-18T11:13:53.339Z,94797.47
2022-10-18T11:15:16.941Z,94795.25
2022-10-18T11:16:26.277Z,94795.84
2022-10-18T11:17:32.360Z,94794.13
2022-10-18T11:18:36.491Z,94792.59
2022-10-18T11:19:44.447Z,94791.13
2022-10-18T11:20:51.031Z,94788.59
2022-10-18T11:21:53.366Z,94795.84
2022-10-18T11:23:01.586Z,94793.31
2022-10-18T11:24:03.516Z,94796.22
2022-10-18T11:25:05.635Z,94793.34
2022-10-18T11:26:32.412Z,94788.72
2022-10-18T11:27:40.915Z,94800.84
2022-10-18T11:28:57.988Z,94793.03
2022-10-18T11:30:18.593Z,94793.63
2022-10-18T11:31:30.295Z,94791.97
2022-10-18T11:32:42.800Z,94790.25
2022-10-18T11:34:14.832Z,94783.03
2022-10-18T11:35:33.086Z,94793.50
2022-10-18T11:36:49.327Z,94789.78
2022-10-18T11:38:15.485Z,94788.03
2022-10-18T11:39:26.084Z,94796.97
2022-10-18T11:40:37.662Z,94782.19
2022-10-18T11:41:47.225Z,94778.81
2022-10-18T11:42:58.324Z,94779.50
2022-10-18T11:44:03.707Z,94775.97
2022-10-18T11:45:18.220Z,94781.31
2022-10-18T11:46:29.821Z,94781.00
2022-10-18T11:47:40.926Z,94780.06
2022-10-18T11:49:00.188Z,94781.97
2022-10-18T11:50:11.869Z,94783.13
2022-10-18T11:51:34.080Z,94784.28
2022-10-18T11:52:49.043Z,94781.69
2022-10-18T11:54:09.385Z,94782.84
2022-10-18T11:55:33.042Z,94778.88
2022-10-18T11:56:42.405Z,94780.16
2022-10-18T11:57:50.064Z,94781.31
2022-10-18T11:59:08.133Z,94777.00
2022-10-18T12:00:21.347Z,94777.38
2022-10-18T12:01:32.405Z,94770.88
2022-10-18T12:02:55.554Z,94779.97
2022-10-18T12:04:04.517Z,94771.81
2022-10-18T12:05:24.528Z,94771.59
2022-10-18T12:06:32.776Z,94774.69
2022-10-18T12:07:40.678Z,94781.44
2022-10-18T12:08:47.837Z,94775.13
2022-10-18T12:09:52.348Z,94776.31
2022-10-18T12:11:04.926Z,94777.25
2022-10-18T12:12:12.214Z,94769.28
2022-10-18T12:13:18.279Z,94772.00
2022-10-18T12:14:25.343Z,94781.41
2022-10-18T12:15:28.593Z,94775.03
2022-10-18T12:16:50.517Z,94780.78
2022-10-18T12:17:55.491Z,94777.78
2022-10-18T12:18:59.960Z,94781.94
2022-10-18T12:20:07.022Z,94784.53
2022-10-18T12:21:10.943Z,94775.97
2022-10-18T12:22:18.239Z,94770.22
2022-10-18T12:23:25.915Z,94769.19
2022-10-18T12:24:31.824Z,94769.81
2022-10-18T12:25:38.280Z,94772.41
2022-10-18T12:26:39.875Z,94768.31
2022-10-18T12:27:46.185Z,94770.00
2022-10-18T12:28:56.907Z,94770.50
2022-10-18T12:30:03.571Z,94773.50
2022-10-18T12:31:13.659Z,94765.19
2022-10-18T12:32:19.139Z,94774.66
2022-10-18T12:33:29.043Z,94767.13
2022-10-18T12:34:36.307Z,94771.72
2022-10-18T12:35:49.286Z,94769.69
2022-10-18T12:37:08.274Z,94770.81
2022-10-18T12:38:19.923Z,94768.28
2022-10-18T12:39:33.427Z,94763.47
2022-10-18T12:40:52.164Z,94774.75
2022-10-18T12:41:54.943Z,94770.38
2022-10-18T12:42:56.591Z,94766.19
2022-10-18T12:44:02.625Z,94769.75
2022-10-18T12:45:06.480Z,94760.66
2022-10-18T12:46:13.245Z,94765.50
2022-10-18T12:47:22.831Z,94772.88
2022-10-18T12:48:43.124Z,94771.63